22°C Temp
22°C Dewpoint
100% Humidity
Temperature
5 KM/H
3 MPH
3 KTS
160°
South South
East

Wind Speed
Overcast
Conditions
Pressure 1014.92 (hPa) - 29.97 (in)
Visibility 5.6 (mi) - 9.0 (km)

Current Conditions
SAEZ
Location 120km(km)
Metar :SAEZ 200900Z 16003KT 9000 -DZ OVC008 22/22 Q1015 NOSIG RMK PP999
Thu 20th January 06:00 am

Airport
  Metar Aviation API Data Provided by https://www.checkwx.com/ PHP scripts by weather34.com ©2022